This is the latest recevied weather packets stored in our database for station/object VE1DX. If no packets are shown the sender has not sent any weather packets the latest 10 day(s).
| Time | Temp. | Humidity | Pressure | Rain* | Wind** | Luminosity | Snow |
|---|---|---|---|---|---|---|---|
| 1777779617 | 5° C | 82% | 1015.4 hPa | 0 mm | - | - | - |
| 1777779317 | 5° C | 81% | 1015.3 hPa | 0 mm | - | - | - |
| 1777779017 | 5° C | 80% | 1015.4 hPa | 0 mm | - | - | - |
| 1777778716 | 5° C | 79% | 1015.4 hPa | 0 mm | - | - | - |
| 1777778417 | 5° C | 80% | 1015.4 hPa | 0 mm | - | - | - |
| 1777778117 | 5° C | 79% | 1015.5 hPa | 0 mm | - | - | - |
| 1777777817 | 5° C | 79% | 1015.5 hPa | 0 mm | - | - | - |
| 1777777517 | 5° C | 79% | 1015.4 hPa | 0 mm | - | - | - |
| 1777777217 | 5° C | 78% | 1015.4 hPa | 0 mm | - | - | - |
| 1777776917 | 5° C | 77% | 1015.3 hPa | 0 mm | - | - | - |
| 1777776617 | 5.56° C | 77% | 1015.3 hPa | 0 mm | - | - | - |
| 1777776317 | 5.56° C | 76% | 1015.3 hPa | 0 mm | - | - | - |
| 1777776017 | 5.56° C | 76% | 1015.3 hPa | 0 mm | - | - | - |
| 1777775717 | 5.56° C | 76% | 1015.4 hPa | 0 mm | - | - | - |
| 1777775417 | 6.11° C | 76% | 1015.4 hPa | 0 mm | - | - | - |
| 1777775117 | 6.11° C | 74% | 1015.4 hPa | 0 mm | - | - | - |
| 1777774817 | 6.11° C | 75% | 1015.3 hPa | 0 mm | - | - | - |
| 1777774517 | 6.11° C | 75% | 1015.4 hPa | 0 mm | - | - | - |
| 1777773617 | 6.67° C | 69% | 1015.4 hPa | 0 mm | - | - | - |
| 1777773321 | 6.67° C | 70% | 1015.5 hPa | 0 mm | - | - | - |
| 1777773017 | 7.22° C | 69% | 1015.5 hPa | 0 mm | - | - | - |
| 1777772117 | 7.78° C | 68% | 1015.6 hPa | 0 mm | - | - | - |
| 1777771817 | 7.78° C | 65% | 1015.7 hPa | 0 mm | - | - | - |
| 1777767617 | 10° C | 51% | 1015.2 hPa | 0 mm | - | - | - |
| 1777766717 | 10.56° C | 52% | 1015.1 hPa | 0 mm | - | - | - |
* Rain latest hour (hover to see other rain measurements)
** Current wind speed in m/s (hover to see current wind gust speed)